Time;durP1;ratioP1;P1;durP2;ratioP2;P2;SDS_P1;SDS_P2;PMS_P1;PMS_P2;Temp;Humidity;BMP_temperature;BMP_pressure;BME280_temperature;BME280_humidity;BME280_pressure;Samples;Min_cycle;Max_cycle;Signal;HPM_P1;HPM_P2
2022/06/12 00:00:13;;;;;;;;;1.00;1.00;;;;;17.44;54.55;102225.59;4991279;28;8905;-67
2022/06/12 00:02:39;;;;;;;;;0.33;0.33;;;;;17.43;54.53;102223.09;4989494;28;8873;-68
2022/06/12 00:05:12;;;;;;;;;1.67;1.00;;;;;17.38;54.74;102222.88;4990567;28;9651;-67
2022/06/12 00:07:38;;;;;;;;;1.00;1.00;;;;;17.34;54.99;102210.72;4973206;28;9640;-68
2022/06/12 00:10:05;;;;;;;;;4.25;2.00;;;;;17.32;55.27;102208.19;5006144;28;9690;-67
2022/06/12 00:12:32;;;;;;;;;1.75;1.25;;;;;17.30;55.16;102200.25;4991042;28;8815;-67
2022/06/12 00:14:58;;;;;;;;;2.00;1.25;;;;;17.31;55.31;102201.09;4991001;28;8910;-67
2022/06/12 00:17:25;;;;;;;;;2.75;2.00;;;;;17.30;54.98;102208.41;4991845;28;8846;-67
2022/06/12 00:19:51;;;;;;;;;1.00;1.00;;;;;17.29;55.47;102198.56;5010195;28;8831;-67
2022/06/12 00:22:18;;;;;;;;;1.00;1.00;;;;;17.29;54.92;102198.56;4989627;28;8935;-68
2022/06/12 00:24:45;;;;;;;;;1.00;1.00;;;;;17.28;54.80;102202.31;4991127;28;9031;-67
2022/06/12 00:27:12;;;;;;;;;3.50;0.50;;;;;17.27;54.57;102200.66;4986368;28;9051;-66
2022/06/12 00:29:39;;;;;;;;;0.50;0.50;;;;;17.25;54.76;102202.72;4990195;28;8840;-67
2022/06/12 00:32:12;;;;;;;;;0.33;0.33;;;;;17.23;54.82;102199.41;4989013;28;8871;-67
2022/06/12 00:34:51;;;;;;;;;2.00;1.00;;;;;17.20;54.86;102193.53;4977307;28;8926;-67
2022/06/12 00:37:21;;;;;;;;;2.33;0.00;;;;;17.21;54.91;102195.19;4994003;28;8920;-67
2022/06/12 00:39:50;;;;;;;;;1.00;1.00;;;;;17.17;55.13;102200.19;4990071;28;9006;-68
2022/06/12 00:42:30;;;;;;;;;3.00;3.00;;;;;17.16;55.14;102194.97;4994347;28;9208;-66
2022/06/12 00:44:59;;;;;;;;;2.00;2.00;;;;;17.14;55.42;102205.25;4994363;28;9152;-68
2022/06/12 00:47:27;;;;;;;;;0.33;0.33;;;;;17.12;55.39;102197.25;4994091;28;9078;-67
2022/06/12 00:50:02;;;;;;;;;1.00;1.00;;;;;17.11;55.42;102194.75;4994604;28;9006;-68
2022/06/12 00:52:45;;;;;;;;;1.00;1.00;;;;;17.06;55.69;102198.09;4994036;28;9687;-66
2022/06/12 00:55:25;;;;;;;;;1.67;1.67;;;;;17.03;55.45;102199.31;4993952;28;9065;-67
2022/06/12 00:58:06;;;;;;;;;2.00;0.33;;;;;17.01;55.39;102195.13;4993489;28;9862;-65
2022/06/12 01:00:34;;;;;;;;;3.67;1.00;;;;;16.99;55.47;102194.50;4976829;28;9096;-66
2022/06/12 01:03:01;;;;;;;;;2.00;2.00;;;;;16.97;55.69;102191.13;4993519;28;9185;-66
2022/06/12 01:08:16;;;;;;;;;2.00;2.00;;;;;16.93;55.77;102198.03;4993824;28;9076;-66
2022/06/12 01:10:46;;;;;;;;;2.00;2.00;;;;;16.90;55.87;102193.00;4994015;28;9003;-66
2022/06/12 01:13:23;;;;;;;;;2.33;1.00;;;;;16.89;56.08;102194.03;4992827;28;9002;-66
2022/06/12 01:15:54;;;;;;;;;2.00;2.00;;;;;16.87;55.92;102196.13;4993369;28;9080;-66
2022/06/12 01:18:26;;;;;;;;;2.00;1.67;;;;;16.85;56.22;102199.03;4993588;28;10114;-65
2022/06/12 01:21:21;;;;;;;;;2.00;2.00;;;;;16.85;56.23;102190.03;4993717;28;9148;-66
2022/06/12 01:24:09;;;;;;;;;2.00;2.00;;;;;16.83;56.48;102189.41;4993740;28;9078;-66
2022/06/12 01:27:19;;;;;;;;;2.00;1.33;;;;;16.81;56.60;102186.88;4992854;28;9040;-66
2022/06/12 01:30:10;;;;;;;;;1.00;1.00;;;;;16.77;56.95;102191.91;4993359;28;9166;-65
2022/06/12 01:32:45;;;;;;;;;1.00;1.00;;;;;16.71;57.23;102187.25;4993462;28;9142;-66
2022/06/12 01:35:21;;;;;;;;;2.67;2.00;;;;;16.66;57.16;102181.56;4993605;28;9150;-65
2022/06/12 01:38:17;;;;;;;;;2.67;2.00;;;;;16.68;57.43;102184.09;4993253;28;9216;-65
2022/06/12 01:40:53;;;;;;;;;3.00;2.00;;;;;16.67;57.40;102182.41;4967822;28;9073;-65
2022/06/12 01:43:35;;;;;;;;;1.00;1.00;;;;;16.64;57.72;102189.06;4980651;28;9180;-65
2022/06/12 01:46:22;;;;;;;;;2.00;2.00;;;;;16.63;57.76;102187.41;4998046;28;9284;-64
2022/06/12 01:49:14;;;;;;;;;3.33;1.33;;;;;16.62;58.04;102180.31;4998026;28;9218;-64
2022/06/12 01:51:52;;;;;;;;;1.00;1.00;;;;;16.64;58.14;102190.97;4998236;28;9168;-66
2022/06/12 01:54:40;;;;;;;;;1.00;1.00;;;;;16.60;58.31;102182.38;4997079;28;8990;-65
2022/06/12 01:57:29;;;;;;;;;1.00;1.00;;;;;16.59;58.29;102188.00;4984437;28;9098;-64
2022/06/12 01:59:59;;;;;;;;;1.00;1.00;;;;;16.55;58.54;102185.69;4994161;28;9094;-65
2022/06/12 02:02:34;;;;;;;;;7.00;2.67;;;;;16.53;58.74;102181.53;4995164;28;9824;-65
2022/06/12 02:05:07;;;;;;;;;2.00;2.00;;;;;16.51;59.24;102187.13;4995035;28;9239;-65
2022/06/12 02:07:38;;;;;;;;;4.00;2.00;;;;;16.49;59.11;102186.50;4994232;28;9157;-65
2022/06/12 02:10:13;;;;;;;;;2.00;1.00;;;;;16.48;59.41;102190.25;4993693;28;9075;-65
2022/06/12 02:15:37;;;;;;;;;5.00;2.00;;;;;16.50;59.40;102190.06;4994172;28;9077;-65
2022/06/12 02:18:08;;;;;;;;;1.00;1.00;;;;;16.44;59.49;102180.81;5012125;28;9078;-65
2022/06/12 02:20:40;;;;;;;;;3.00;2.00;;;;;16.42;59.95;102179.34;4997581;28;9081;-64
2022/06/12 02:23:37;;;;;;;;;1.00;1.00;;;;;16.40;60.15;102175.97;4997771;28;9183;-65
2022/06/12 02:26:05;;;;;;;;;0.67;0.67;;;;;16.39;60.45;102169.72;4996566;28;9166;-66
2022/06/12 02:28:41;;;;;;;;;3.00;2.00;;;;;16.40;60.29;102175.97;4995276;28;9255;-64
2022/06/12 02:31:16;;;;;;;;;3.33;2.67;;;;;16.37;60.51;102176.41;5038675;22;9110;-67
2022/06/12 02:33:48;;;;;;;;;3.00;1.67;;;;;16.36;60.79;102170.09;5030215;28;9006;-67
2022/06/12 02:36:25;;;;;;;;;3.00;2.00;;;;;16.31;60.95;102170.72;5016654;28;9068;-67
2022/06/12 02:39:05;;;;;;;;;3.00;1.00;;;;;16.30;61.08;102170.91;5031366;28;9166;-67
2022/06/12 02:41:39;;;;;;;;;2.00;2.00;;;;;16.29;61.41;102169.25;5021833;28;9204;-67
2022/06/12 02:44:15;;;;;;;;;3.00;3.00;;;;;16.28;61.44;102170.25;5018679;28;9192;-67
2022/06/12 02:47:09;;;;;;;;;4.33;4.33;;;;;16.26;61.71;102173.19;5013814;28;9185;-67
2022/06/12 02:49:43;;;;;;;;;1.00;1.00;;;;;16.26;61.93;102180.50;5011839;28;9181;-67
2022/06/12 02:52:20;;;;;;;;;1.00;1.00;;;;;16.24;62.01;102180.69;5015624;28;9165;-67
2022/06/12 02:55:08;;;;;;;;;2.33;1.67;;;;;16.24;61.95;102177.13;5031454;28;9153;-67
2022/06/12 02:57:46;;;;;;;;;2.67;2.67;;;;;16.19;62.03;102172.31;5030858;28;9051;-67
2022/06/12 03:00:36;;;;;;;;;3.00;1.67;;;;;16.17;62.28;102168.97;5016686;28;9184;-68
2022/06/12 03:03:11;;;;;;;;;1.00;1.00;;;;;16.14;62.38;102172.06;5030772;28;9259;-67
2022/06/12 03:05:41;;;;;;;;;3.00;3.00;;;;;16.15;62.75;102170.19;5031261;28;9161;-67
2022/06/12 03:08:16;;;;;;;;;6.00;2.00;;;;;16.16;63.02;102166.44;5030896;28;9232;-67
2022/06/12 03:11:14;;;;;;;;;6.00;3.67;;;;;16.18;62.87;102162.47;5031034;28;9985;-67
2022/06/12 03:13:41;;;;;;;;;2.00;1.00;;;;;16.16;63.01;102159.13;5030577;28;9169;-67
2022/06/12 03:16:25;;;;;;;;;2.67;2.67;;;;;16.14;62.73;102161.19;5022539;28;9068;-67
2022/06/12 03:18:57;;;;;;;;;1.00;1.00;;;;;16.13;62.99;102164.97;5027966;28;9158;-66
2022/06/12 03:21:39;;;;;;;;;5.67;3.00;;;;;16.12;63.06;102173.28;5026232;28;9162;-66
2022/06/12 03:24:35;;;;;;;;;3.00;2.33;;;;;16.08;63.24;102170.13;5030880;28;10021;-68
2022/06/12 03:27:37;;;;;;;;;3.33;2.67;;;;;16.04;63.32;102163.41;5030822;28;9227;-68
2022/06/12 03:30:03;;;;;;;;;1.00;1.00;;;;;16.01;63.42;102170.09;5006352;28;9243;-68
2022/06/12 03:33:05;;;;;;;;;0.67;0.67;;;;;16.00;63.44;102170.28;5031004;28;9184;-68
2022/06/12 03:36:06;;;;;;;;;7.33;2.67;;;;;15.99;63.65;102176.75;5011118;28;9173;-68
2022/06/12 03:38:52;;;;;;;;;1.00;1.00;;;;;15.96;63.86;102179.88;5011105;28;9229;-68
2022/06/12 03:41:25;;;;;;;;;5.00;3.00;;;;;15.93;64.34;102183.00;5014812;28;9187;-68
2022/06/12 03:44:28;;;;;;;;;5.33;5.33;;;;;15.90;64.38;102180.66;5019430;28;9251;-68
2022/06/12 03:47:04;;;;;;;;;6.67;5.33;;;;;15.87;64.53;102190.03;4999167;28;9251;-68
2022/06/12 03:49:38;;;;;;;;;2.67;2.67;;;;;15.87;64.77;102195.47;5030955;28;9463;-68
2022/06/12 03:52:26;;;;;;;;;3.67;2.33;;;;;15.88;64.38;102196.31;5029632;28;9407;-69
2022/06/12 03:55:08;;;;;;;;;5.67;4.00;;;;;15.86;64.77;102196.50;5030819;28;9148;-66
2022/06/12 03:57:52;;;;;;;;;1.00;1.00;;;;;15.85;64.93;102189.41;5030361;28;9295;-67
2022/06/12 04:00:25;;;;;;;;;6.00;3.00;;;;;15.86;64.76;102179.38;5030864;28;9056;-67
2022/06/12 04:02:59;;;;;;;;;4.00;1.00;;;;;15.83;65.12;102189.59;5030299;28;9309;-66
2022/06/12 04:05:36;;;;;;;;;3.33;3.00;;;;;15.86;65.31;102180.22;5030646;28;9313;-67
2022/06/12 04:08:08;;;;;;;;;2.33;2.33;;;;;15.91;65.10;102176.91;5025399;28;9312;-66
2022/06/12 04:10:38;;;;;;;;;2.67;2.67;;;;;15.97;64.92;102176.97;5030519;28;9318;-67
2022/06/12 04:13:09;;;;;;;;;4.33;2.33;;;;;16.01;64.96;102182.84;5030083;28;9421;-67
2022/06/12 04:15:42;;;;;;;;;4.33;2.00;;;;;16.01;64.66;102185.56;5030622;28;9226;-66
2022/06/12 04:18:09;;;;;;;;;2.33;2.33;;;;;16.01;64.68;102188.28;5030381;28;9964;-66
2022/06/12 04:20:38;;;;;;;;;2.00;1.33;;;;;15.99;64.82;102190.34;5030242;28;9232;-67
2022/06/12 04:23:19;;;;;;;;;2.33;2.33;;;;;15.97;65.22;102179.69;5030192;28;9227;-66
2022/06/12 04:26:01;;;;;;;;;2.00;2.00;;;;;15.98;65.21;102191.38;5030438;28;9241;-67
2022/06/12 04:28:33;;;;;;;;;7.00;5.00;;;;;15.98;65.39;102181.34;5030253;28;9226;-66
2022/06/12 04:31:02;;;;;;;;;2.67;1.00;;;;;15.98;65.06;102188.66;5030463;28;9269;-67
2022/06/12 04:33:40;;;;;;;;;2.67;2.67;;;;;15.98;65.64;102186.78;5030354;28;9336;-66
2022/06/12 04:36:11;;;;;;;;;5.00;5.00;;;;;15.99;65.55;102191.19;5030370;28;9395;-67
2022/06/12 04:38:39;;;;;;;;;3.00;3.00;;;;;16.01;65.75;102182.84;5030113;28;10014;-67
2022/06/12 04:41:06;;;;;;;;;6.67;5.00;;;;;16.00;65.47;102184.72;5030053;28;9321;-66
2022/06/12 04:43:33;;;;;;;;;6.00;3.00;;;;;15.97;65.88;102187.84;5029637;28;9336;-66
2022/06/12 04:46:02;;;;;;;;;5.33;5.33;;;;;15.97;66.02;102187.84;5026953;28;9409;-67
2022/06/12 04:48:41;;;;;;;;;5.00;3.00;;;;;15.99;65.62;102193.06;5009952;28;9195;-67
2022/06/12 04:51:09;;;;;;;;;4.33;4.33;;;;;16.00;65.93;102192.00;5023774;28;9948;-67
2022/06/12 04:53:37;;;;;;;;;3.00;2.00;;;;;15.99;65.81;102199.31;5029860;28;9240;-67
2022/06/12 04:56:05;;;;;;;;;3.00;3.00;;;;;16.03;66.22;102200.59;5029945;28;9925;-67
2022/06/12 04:58:32;;;;;;;;;6.00;6.00;;;;;16.06;66.27;102197.50;5029543;28;9169;-67
2022/06/12 05:00:58;;;;;;;;;1.00;1.00;;;;;16.09;66.18;102200.88;5011839;28;10106;-67
2022/06/12 05:03:25;;;;;;;;;3.00;3.00;;;;;16.10;65.92;102194.41;5031200;28;9266;-67
2022/06/12 05:05:52;;;;;;;;;3.33;2.33;;;;;16.13;66.06;102194.84;5033644;28;8990;-67
2022/06/12 05:08:19;;;;;;;;;3.33;3.33;;;;;16.17;66.27;102185.25;5015836;28;9062;-67
2022/06/12 05:10:46;;;;;;;;;4.00;2.33;;;;;16.22;65.85;102187.38;5033507;28;9077;-67
2022/06/12 05:13:13;;;;;;;;;5.00;2.00;;;;;16.26;65.82;102180.50;5033571;28;9241;-67
2022/06/12 05:15:39;;;;;;;;;2.00;2.00;;;;;16.31;66.03;102191.63;5033681;28;9056;-67
2022/06/12 05:18:07;;;;;;;;;2.00;2.00;;;;;16.37;66.03;102184.56;5033634;28;9100;-66
2022/06/12 05:20:37;;;;;;;;;2.33;2.00;;;;;16.43;65.71;102192.72;5033186;28;9006;-67
2022/06/12 05:23:04;;;;;;;;;1.67;1.00;;;;;16.50;65.61;102195.50;5033480;28;9717;-66
2022/06/12 05:25:31;;;;;;;;;5.67;2.00;;;;;16.54;65.66;102188.63;5033357;28;9070;-67
2022/06/12 05:27:59;;;;;;;;;4.33;4.33;;;;;16.60;65.46;102208.72;5015516;28;9086;-67
2022/06/12 05:30:28;;;;;;;;;2.33;2.33;;;;;16.67;65.29;102194.13;5032889;28;9894;-67
2022/06/12 05:32:57;;;;;;;;;4.00;3.67;;;;;16.71;65.07;102203.56;5033310;28;9084;-67
2022/06/12 05:35:24;;;;;;;;;2.33;2.00;;;;;16.71;65.33;102198.13;5033637;28;9067;-67
2022/06/12 05:37:51;;;;;;;;;5.00;3.00;;;;;16.72;65.15;102196.22;5033760;28;9027;-67
2022/06/12 05:40:25;;;;;;;;;2.00;2.00;;;;;16.77;65.08;102205.50;5032824;28;9074;-67
2022/06/12 05:42:52;;;;;;;;;3.00;3.00;;;;;16.84;64.95;102202.81;5015408;28;9769;-67
2022/06/12 05:45:21;;;;;;;;;8.67;1.00;;;;;17.01;64.12;102206.88;5032847;28;9081;-67
2022/06/12 05:47:54;;;;;;;;;1.67;1.67;;;;;17.24;63.39;102201.06;5014887;28;8921;-67
2022/06/12 05:50:24;;;;;;;;;3.00;3.00;;;;;17.42;61.76;102203.22;5017958;28;8931;-67
2022/06/12 05:52:51;;;;;;;;;2.33;2.33;;;;;17.52;61.35;102213.69;5032795;28;8841;-67
2022/06/12 05:55:18;;;;;;;;;1.50;1.50;;;;;17.59;60.98;102209.09;5031924;28;8997;-67
2022/06/12 05:57:44;;;;;;;;;4.00;3.00;;;;;17.67;60.38;102213.50;5022626;28;8893;-67
2022/06/12 06:00:21;;;;;;;;;2.75;1.50;;;;;17.75;60.53;102216.06;5012308;28;9699;-67
2022/06/12 06:02:47;;;;;;;;;1.00;1.00;;;;;17.76;59.92;102210.41;5012920;28;8865;-67
2022/06/12 06:05:15;;;;;;;;;2.25;1.75;;;;;17.71;59.48;102212.06;5020836;28;8852;-67
2022/06/12 06:07:42;;;;;;;;;1.25;1.00;;;;;17.71;59.63;102212.06;5029937;28;8845;-67
2022/06/12 06:10:15;;;;;;;;;1.75;1.75;;;;;17.74;59.66;102217.06;5031979;28;8919;-67
2022/06/12 06:12:42;;;;;;;;;2.50;2.00;;;;;17.74;59.51;102214.34;5032473;28;8837;-67
2022/06/12 06:15:10;;;;;;;;;3.00;1.00;;;;;17.69;59.39;102214.97;5031056;28;8846;-67
2022/06/12 06:17:37;;;;;;;;;2.00;2.00;;;;;17.71;59.08;102217.50;5032151;28;8833;-67
2022/06/12 06:20:05;;;;;;;;;2.00;2.00;;;;;17.68;58.63;102218.75;5032107;28;8826;-67
2022/06/12 06:22:32;;;;;;;;;1.25;1.25;;;;;17.63;59.06;102215.81;5032277;28;8873;-67
2022/06/12 06:24:58;;;;;;;;;2.00;2.00;;;;;17.64;59.07;102217.47;5032132;28;8888;-67
2022/06/12 06:27:25;;;;;;;;;1.75;1.75;;;;;17.68;58.64;102218.75;5025676;28;8838;-67
2022/06/12 06:29:51;;;;;;;;;1.25;1.25;;;;;17.69;58.91;102214.13;5023849;28;8853;-67
2022/06/12 06:32:18;;;;;;;;;2.00;2.00;;;;;17.70;58.59;102218.53;5031891;28;8928;-66
2022/06/12 06:34:44;;;;;;;;;2.50;2.00;;;;;17.74;58.53;102231.56;5031986;28;8817;-67
2022/06/12 06:37:12;;;;;;;;;3.50;2.25;;;;;17.79;58.81;102231.78;5031462;28;8814;-66
2022/06/12 06:39:40;;;;;;;;;1.00;1.00;;;;;17.89;58.40;102238.69;5031795;28;8837;-67
2022/06/12 06:42:07;;;;;;;;;2.00;2.00;;;;;17.90;57.48;102237.63;5031787;28;8821;-67
2022/06/12 06:47:22;;;;;;;;;1.75;1.75;;;;;17.91;57.06;102244.78;5025713;28;8830;-67
2022/06/12 06:49:49;;;;;;;;;2.00;1.00;;;;;17.96;56.26;102248.56;5031752;28;8822;-67
2022/06/12 06:52:16;;;;;;;;;3.50;3.00;;;;;17.90;55.81;102243.91;5031454;28;8837;-67
2022/06/12 06:54:42;;;;;;;;;6.00;2.00;;;;;17.90;55.49;102243.09;5031648;28;8834;-67
2022/06/12 06:57:10;;;;;;;;;3.00;3.00;;;;;17.92;55.63;102251.91;5030963;28;8837;-67
2022/06/12 06:59:37;;;;;;;;;2.00;2.00;;;;;18.00;55.90;102254.44;5031508;28;8846;-67
2022/06/12 07:02:04;;;;;;;;;3.00;2.00;;;;;18.03;56.33;102254.84;5031268;28;8825;-67
2022/06/12 07:04:32;;;;;;;;;2.00;2.00;;;;;18.09;55.76;102265.94;5031134;28;8877;-66
2022/06/12 07:06:58;;;;;;;;;3.00;2.00;;;;;18.14;55.70;102263.44;5030977;28;8838;-66
2022/06/12 07:09:25;;;;;;;;;4.50;2.50;;;;;18.14;55.18;102266.97;5031268;28;8901;-66
2022/06/12 07:11:51;;;;;;;;;2.25;1.75;;;;;18.12;55.58;102262.81;5031297;28;8923;-67
2022/06/12 07:14:18;;;;;;;;;2.00;2.00;;;;;18.15;56.01;102265.09;5030736;28;8825;-66
2022/06/12 07:16:44;;;;;;;;;2.75;2.75;;;;;18.14;55.31;102258.81;5030803;28;8821;-67
2022/06/12 07:19:11;;;;;;;;;5.50;2.00;;;;;18.13;55.08;102262.59;5031018;28;8834;-67
2022/06/12 07:21:38;;;;;;;;;2.00;2.00;;;;;18.15;55.03;102262.38;5031064;28;8908;-67
2022/06/12 07:24:05;;;;;;;;;6.25;3.00;;;;;18.18;55.61;102265.53;5030854;28;8838;-67
2022/06/12 07:26:35;;;;;;;;;2.00;2.00;;;;;18.19;54.69;102250.88;5030596;28;8951;-67
2022/06/12 07:29:03;;;;;;;;;1.75;1.75;;;;;18.22;54.38;102255.03;5030338;28;8845;-67
2022/06/12 07:31:30;;;;;;;;;2.00;2.00;;;;;18.18;53.53;102251.88;5030743;28;8936;-67
2022/06/12 07:33:57;;;;;;;;;3.00;3.00;;;;;18.20;53.99;102249.81;5030898;28;8826;-67
2022/06/12 07:36:25;;;;;;;;;1.75;1.75;;;;;18.24;53.95;102253.78;5030842;28;8927;-67
2022/06/12 07:38:52;;;;;;;;;1.00;1.00;;;;;18.33;54.04;102257.13;5030393;28;8826;-67
2022/06/12 07:41:39;;;;;;;;;1.25;1.00;;;;;18.37;53.15;102255.66;5030521;28;8818;-67
2022/06/12 07:44:06;;;;;;;;;1.00;1.00;;;;;18.39;53.21;102258.16;5030704;28;8922;-67
2022/06/12 07:46:34;;;;;;;;;1.00;1.00;;;;;18.45;53.10;102269.06;5030347;28;8899;-67
2022/06/12 07:49:00;;;;;;;;;1.00;1.00;;;;;18.46;52.21;102256.28;5030579;28;8879;-67
2022/06/12 07:51:27;;;;;;;;;1.25;1.25;;;;;18.51;51.83;102265.50;5030427;28;8916;-66
2022/06/12 07:53:55;;;;;;;;;4.25;1.25;;;;;18.56;51.58;102258.59;5030051;28;8833;-69
2022/06/12 07:56:24;;;;;;;;;3.50;3.50;;;;;18.51;51.67;102264.66;5030549;28;8893;-67
2022/06/12 07:58:51;;;;;;;;;0.75;0.75;;;;;18.48;52.60;102257.75;5030455;28;8896;-67
2022/06/12 08:01:21;;;;;;;;;4.25;1.75;;;;;18.52;52.58;102269.06;5030654;28;8846;-67
2022/06/12 08:03:48;;;;;;;;;2.00;2.00;;;;;18.58;53.04;102264.66;5030261;28;8841;-67
2022/06/12 08:06:15;;;;;;;;;2.00;2.00;;;;;18.63;53.11;102268.41;5030397;28;9515;-67
2022/06/12 08:08:42;;;;;;;;;2.50;2.00;;;;;18.65;52.72;102266.31;5030510;28;8837;-68
2022/06/12 08:11:09;;;;;;;;;5.00;3.00;;;;;18.62;52.38;102263.16;5030308;28;8826;-68
2022/06/12 08:13:36;;;;;;;;;2.75;2.75;;;;;18.59;52.44;102250.78;5030549;28;8841;-67
2022/06/12 08:16:03;;;;;;;;;2.25;1.50;;;;;18.60;52.91;102259.84;5030274;28;8834;-68
2022/06/12 08:18:29;;;;;;;;;3.50;2.00;;;;;18.54;52.36;102264.22;5029881;28;9610;-68
2022/06/12 08:21:04;;;;;;;;;2.75;1.50;;;;;18.60;52.86;102268.00;5029953;28;8911;-68
2022/06/12 08:23:52;;;;;;;;;3.00;2.00;;;;;18.65;52.83;102266.31;5030252;28;8911;-67
2022/06/12 08:26:32;;;;;;;;;1.00;1.00;;;;;18.70;52.58;102266.53;5030255;28;8907;-67
2022/06/12 08:29:03;;;;;;;;;2.00;1.25;;;;;18.74;52.82;102269.69;5030521;28;8848;-67
2022/06/12 08:31:47;;;;;;;;;3.00;3.00;;;;;18.82;52.75;102269.44;5030354;28;8830;-67
2022/06/12 08:34:22;;;;;;;;;2.50;2.00;;;;;18.83;52.28;102265.66;5031128;28;9561;-66
2022/06/12 08:36:51;;;;;;;;;2.00;1.00;;;;;18.84;52.37;102252.84;5031394;28;8877;-66
2022/06/12 08:39:18;;;;;;;;;3.50;2.50;;;;;18.85;52.79;102251.81;4999985;28;8846;-65
2022/06/12 08:41:47;;;;;;;;;2.00;2.00;;;;;18.83;52.63;102262.09;5034559;28;8915;-66
2022/06/12 08:44:29;;;;;;;;;2.00;1.50;;;;;18.89;52.46;102255.78;5025634;28;8852;-66
2022/06/12 08:47:09;;;;;;;;;3.00;2.00;;;;;18.95;51.85;102261.22;4996980;28;8836;-66
2022/06/12 08:49:45;;;;;;;;;1.25;1.25;;;;;19.03;52.67;102262.88;5023141;28;8848;-66
2022/06/12 08:52:16;;;;;;;;;1.50;1.50;;;;;19.10;52.29;102271.03;5014635;28;8860;-68
2022/06/12 08:55:01;;;;;;;;;1.75;1.75;;;;;19.07;52.19;102258.66;5014981;28;8828;-68
2022/06/12 08:57:55;;;;;;;;;1.00;1.00;;;;;19.20;52.43;102253.16;5025621;28;8860;-68
2022/06/12 09:00:26;;;;;;;;;2.50;2.50;;;;;19.34;51.82;102251.19;5029116;28;9579;-67
2022/06/12 09:02:53;;;;;;;;;2.00;2.00;;;;;19.40;51.85;102246.72;5033982;28;8826;-68
2022/06/12 09:05:26;;;;;;;;;2.00;2.00;;;;;19.38;51.08;102252.41;5016244;28;8832;-67
2022/06/12 09:08:07;;;;;;;;;5.50;3.00;;;;;19.35;51.13;102246.56;5034669;28;8846;-67
2022/06/12 09:10:45;;;;;;;;;2.75;1.50;;;;;19.44;50.78;102251.53;5034525;28;8849;-67
2022/06/12 09:13:27;;;;;;;;;2.00;2.00;;;;;19.49;50.15;102245.44;5034699;28;8849;-67
2022/06/12 09:16:00;;;;;;;;;2.00;2.00;;;;;19.59;49.40;102248.50;5034116;28;8834;-67
2022/06/12 09:18:29;;;;;;;;;1.00;1.00;;;;;19.67;49.30;102247.44;5034282;28;8838;-68
2022/06/12 09:21:10;;;;;;;;;3.00;3.00;;;;;19.78;49.16;102249.47;5034839;28;8841;-67
2022/06/12 09:24:05;;;;;;;;;1.50;1.50;;;;;19.85;48.76;102252.13;5034181;28;9552;-67
2022/06/12 09:26:51;;;;;;;;;2.75;2.50;;;;;19.76;48.32;102251.56;5021666;28;8853;-67
2022/06/12 09:29:32;;;;;;;;;1.00;1.00;;;;;19.71;48.56;102252.25;5014487;28;9601;-67
2022/06/12 09:32:09;;;;;;;;;2.00;2.00;;;;;19.74;48.66;102254.53;5013968;28;8836;-67
2022/06/12 09:34:48;;;;;;;;;2.75;2.50;;;;;19.83;48.17;102249.63;5014097;28;8832;-68
2022/06/12 09:40:34;;;;;;;;;2.00;2.00;;;;;19.88;47.96;102251.69;5033155;28;8826;-68
2022/06/12 09:43:12;;;;;;;;;2.00;2.00;;;;;19.88;48.15;102248.97;5001149;28;8902;-68
2022/06/12 09:45:51;;;;;;;;;1.00;1.00;;;;;19.91;47.46;102246.63;5013111;28;8902;-68
2022/06/12 09:48:22;;;;;;;;;3.00;2.00;;;;;19.99;47.48;102246.34;5032543;28;8833;-68
2022/06/12 09:51:15;;;;;;;;;3.25;1.00;;;;;20.09;46.77;102245.84;5031009;28;8830;-68
2022/06/12 09:54:05;;;;;;;;;1.00;1.00;;;;;20.14;46.60;102254.22;5032900;28;9672;-68
2022/06/12 09:56:47;;;;;;;;;2.75;2.75;;;;;20.17;46.14;102250.19;5015740;28;8833;-68
2022/06/12 09:59:20;;;;;;;;;2.00;1.00;;;;;20.27;46.68;102260.66;5033257;28;8899;-66
2022/06/12 10:01:52;;;;;;;;;2.50;2.00;;;;;20.29;46.67;102258.50;5033355;28;8834;-66
2022/06/12 10:04:51;;;;;;;;;1.25;1.25;;;;;20.19;47.25;102256.28;5032987;28;8915;-66
2022/06/12 10:07:26;;;;;;;;;1.25;0.75;;;;;20.15;45.74;102263.28;5032559;28;8834;-67
2022/06/12 10:10:09;;;;;;;;;4.00;1.00;;;;;20.11;45.51;102259.31;5032962;28;8923;-66
2022/06/12 10:12:41;;;;;;;;;3.00;1.00;;;;;20.12;45.57;102253.59;5032859;28;8830;-66
2022/06/12 10:15:17;;;;;;;;;2.00;2.00;;;;;20.19;46.32;102256.28;5033484;28;8841;-66
2022/06/12 10:17:51;;;;;;;;;2.00;2.00;;;;;20.11;45.84;102260.13;5033497;28;9536;-67
2022/06/12 10:20:24;;;;;;;;;2.00;2.00;;;;;20.07;46.80;102267.13;5033308;28;8864;-66
2022/06/12 10:22:53;;;;;;;;;0.00;0.00;;;;;20.13;47.02;102268.94;5032888;28;8837;-66
2022/06/12 10:25:33;;;;;;;;;1.75;1.50;;;;;20.06;46.59;102268.19;5033172;28;8915;-66
2022/06/12 10:28:14;;;;;;;;;1.25;1.00;;;;;20.18;46.66;102260.94;5031708;28;8849;-66
2022/06/12 10:30:45;;;;;;;;;1.75;1.75;;;;;20.31;46.47;102261.88;5030536;28;8850;-66
2022/06/12 10:33:24;;;;;;;;;1.75;1.75;;;;;20.44;46.05;102259.00;5032488;28;8939;-67
2022/06/12 10:35:55;;;;;;;;;1.00;1.00;;;;;20.51;45.45;102262.53;5014433;28;10006;-66
2022/06/12 10:38:25;;;;;;;;;1.00;1.00;;;;;20.44;45.80;102264.47;5032053;28;8834;-66
2022/06/12 10:40:55;;;;;;;;;3.75;1.75;;;;;20.38;45.56;102262.66;5031984;28;8850;-66
2022/06/12 10:43:28;;;;;;;;;2.00;2.00;;;;;20.40;45.69;102261.34;5032129;28;8841;-66
2022/06/12 10:46:00;;;;;;;;;2.00;2.00;;;;;20.45;46.19;102266.97;5031862;28;9576;-67
2022/06/12 10:48:30;;;;;;;;;3.25;3.25;;;;;20.46;45.45;102267.84;5031956;28;8818;-66
2022/06/12 10:51:00;;;;;;;;;2.50;2.00;;;;;20.51;45.62;102262.53;5015789;28;8857;-67
2022/06/12 10:53:30;;;;;;;;;2.00;2.00;;;;;20.54;45.26;102262.09;5012673;28;8832;-67
2022/06/12 10:56:02;;;;;;;;;2.00;2.00;;;;;20.60;45.08;102261.19;5011459;28;8821;-66
2022/06/12 10:59:00;;;;;;;;;1.25;1.25;;;;;20.67;44.84;102255.66;5032264;28;8928;-67
2022/06/12 11:01:29;;;;;;;;;3.00;2.75;;;;;20.60;45.31;102257.59;5029919;28;9572;-67
2022/06/12 11:04:28;;;;;;;;;1.00;1.00;;;;;20.57;44.71;102261.63;5032521;28;8822;-66
2022/06/12 11:07:03;;;;;;;;;3.25;3.00;;;;;20.40;44.50;102255.88;4979970;28;8866;-67
2022/06/12 11:09:36;;;;;;;;;3.25;1.25;;;;;20.37;45.12;102256.31;5032940;28;8845;-67
2022/06/12 11:12:21;;;;;;;;;1.00;1.00;;;;;20.41;44.84;102253.97;5032154;28;8887;-67
2022/06/12 11:15:09;;;;;;;;;1.25;1.25;;;;;20.42;44.49;102253.75;5024906;28;8847;-67
2022/06/12 11:17:52;;;;;;;;;0.50;0.50;;;;;20.43;43.53;102244.50;5012667;28;8816;-67
2022/06/12 11:20:39;;;;;;;;;1.00;1.00;;;;;20.49;44.43;102254.53;5029466;28;9003;-66
2022/06/12 11:23:43;;;;;;;;;2.75;2.00;;;;;20.48;44.66;102262.94;5032981;28;8826;-66
2022/06/12 11:26:40;;;;;;;;;1.50;1.50;;;;;20.51;44.82;102246.13;5033291;28;8837;-66
2022/06/12 11:29:15;;;;;;;;;2.00;2.00;;;;;20.60;45.49;102260.34;5032650;28;9813;-66
2022/06/12 11:32:06;;;;;;;;;2.00;1.50;;;;;20.68;44.99;102257.31;5032755;28;8873;-66
2022/06/12 11:34:52;;;;;;;;;2.00;1.25;;;;;20.71;45.27;102254.97;5032997;28;8913;-66
2022/06/12 11:37:38;;;;;;;;;2.00;1.00;;;;;20.70;45.04;102266.13;5032527;28;8830;-67
2022/06/12 11:40:22;;;;;;;;;1.75;1.75;;;;;20.56;44.76;102253.66;5032538;28;8826;-66
2022/06/12 11:43:15;;;;;;;;;2.50;2.00;;;;;20.59;45.38;102254.03;5032649;28;8915;-66
2022/06/12 11:46:08;;;;;;;;;2.00;2.00;;;;;20.67;44.71;102245.53;5030872;28;8845;-67
2022/06/12 11:49:07;;;;;;;;;4.00;2.50;;;;;20.71;44.52;102245.91;5030419;28;8838;-67
2022/06/12 11:52:25;;;;;;;;;2.00;2.00;;;;;20.77;45.42;102253.19;5007442;28;8899;-67
2022/06/12 11:55:15;;;;;;;;;2.00;2.00;;;;;20.76;44.84;102251.53;5025508;28;8879;-66
2022/06/12 11:58:10;;;;;;;;;1.50;1.50;;;;;20.72;44.66;102242.94;5011912;28;8864;-66
2022/06/12 12:00:53;;;;;;;;;1.25;1.25;;;;;20.67;44.55;102245.53;5021472;28;8826;-66
2022/06/12 12:03:40;;;;;;;;;2.25;2.25;;;;;20.74;45.29;102239.97;5032620;28;8837;-68
2022/06/12 12:06:42;;;;;;;;;2.00;2.00;;;;;20.83;44.23;102235.88;5032051;28;8822;-68
2022/06/12 12:09:51;;;;;;;;;2.00;2.00;;;;;20.79;44.16;102223.72;5011939;28;8834;-69
2022/06/12 12:12:23;;;;;;;;;1.50;1.50;;;;;20.86;43.94;102232.66;5031277;28;8894;-67
2022/06/12 12:14:52;;;;;;;;;2.00;2.00;;;;;20.88;44.00;102236.03;5023282;28;8838;-67
2022/06/12 12:17:27;;;;;;;;;1.75;1.50;;;;;20.81;42.65;102228.94;5013453;28;8824;-68
2022/06/12 12:20:04;;;;;;;;;1.00;1.00;;;;;20.85;42.76;102238.38;5023113;28;8857;-68
2022/06/12 12:22:40;;;;;;;;;1.00;1.00;;;;;20.86;43.67;102229.94;5031330;28;8829;-68